sensor_id;sensor_type;location;lat;lon;timestamp;pressure;altitude;pressure_sealevel;temperature;humidity
53522;BME280;39398;48.382;9.802;2022-10-12T00:00:05;94475.13;;;11.68;100.00
53522;BME280;39398;48.382;9.802;2022-10-12T00:01:06;94476.69;;;11.62;100.00
53522;BME280;39398;48.382;9.802;2022-10-12T00:02:08;94478.34;;;11.49;100.00
53522;BME280;39398;48.382;9.802;2022-10-12T00:03:11;94480.34;;;11.61;100.00
53522;BME280;39398;48.382;9.802;2022-10-12T00:04:13;94482.50;;;11.58;100.00
53522;BME280;39398;48.382;9.802;2022-10-12T00:05:15;94472.28;;;11.55;100.00
53522;BME280;39398;48.382;9.802;2022-10-12T00:06:18;94476.41;;;11.57;100.00
53522;BME280;39398;48.382;9.802;2022-10-12T00:07:20;94483.81;;;11.62;100.00
53522;BME280;39398;48.382;9.802;2022-10-12T00:08:21;94476.41;;;11.57;100.00
53522;BME280;39398;48.382;9.802;2022-10-12T00:09:23;94481.34;;;11.46;100.00
53522;BME280;39398;48.382;9.802;2022-10-12T00:10:24;94477.94;;;11.52;100.00
53522;BME280;39398;48.382;9.802;2022-10-12T00:11:28;94481.59;;;11.51;100.00
53522;BME280;39398;48.382;9.802;2022-10-12T00:12:29;94478.88;;;11.59;100.00
53522;BME280;39398;48.382;9.802;2022-10-12T00:13:31;94476.78;;;11.54;100.00
53522;BME280;39398;48.382;9.802;2022-10-12T00:14:34;94478.84;;;11.74;100.00
53522;BME280;39398;48.382;9.802;2022-10-12T00:15:36;94481.41;;;11.82;100.00
53522;BME280;39398;48.382;9.802;2022-10-12T00:16:38;94478.84;;;11.74;100.00
53522;BME280;39398;48.382;9.802;2022-10-12T00:17:40;94476.03;;;11.75;100.00
53522;BME280;39398;48.382;9.802;2022-10-12T00:18:42;94469.09;;;11.74;100.00
53522;BME280;39398;48.382;9.802;2022-10-12T00:19:44;94478.84;;;11.74;100.00
53522;BME280;39398;48.382;9.802;2022-10-12T00:20:45;94478.16;;;11.65;100.00
53522;BME280;39398;48.382;9.802;2022-10-12T00:21:47;94480.22;;;11.70;100.00
53522;BME280;39398;48.382;9.802;2022-10-12T00:22:48;94474.22;;;11.61;100.00
53522;BME280;39398;48.382;9.802;2022-10-12T00:23:50;94468.91;;;11.61;100.00
53522;BME280;39398;48.382;9.802;2022-10-12T00:24:52;94477.13;;;11.51;100.00
53522;BME280;39398;48.382;9.802;2022-10-12T00:25:54;94474.94;;;11.55;100.00
53522;BME280;39398;48.382;9.802;2022-10-12T00:26:55;94479.41;;;11.54;100.00
53522;BME280;39398;48.382;9.802;2022-10-12T00:27:56;94478.06;;;11.44;100.00
53522;BME280;39398;48.382;9.802;2022-10-12T00:28:59;94478.81;;;11.52;100.00
53522;BME280;39398;48.382;9.802;2022-10-12T00:30:01;94475.31;;;11.52;100.00
53522;BME280;39398;48.382;9.802;2022-10-12T00:31:06;94474.69;;;11.50;100.00
53522;BME280;39398;48.382;9.802;2022-10-12T00:32:08;94475.69;;;11.49;100.00
53522;BME280;39398;48.382;9.802;2022-10-12T00:33:10;94469.56;;;11.63;100.00
53522;BME280;39398;48.382;9.802;2022-10-12T00:34:13;94473.19;;;11.77;100.00
53522;BME280;39398;48.382;9.802;2022-10-12T00:35:14;94461.25;;;11.66;100.00
53522;BME280;39398;48.382;9.802;2022-10-12T00:36:19;94467.22;;;11.53;100.00
53522;BME280;39398;48.382;9.802;2022-10-12T00:37:20;94470.59;;;11.62;100.00
53522;BME280;39398;48.382;9.802;2022-10-12T00:38:22;94474.22;;;11.61;100.00
53522;BME280;39398;48.382;9.802;2022-10-12T00:39:23;94471.13;;;11.57;100.00
53522;BME280;39398;48.382;9.802;2022-10-12T00:40:28;94468.84;;;11.69;100.00
53522;BME280;39398;48.382;9.802;2022-10-12T00:41:32;94474.22;;;11.61;100.00
53522;BME280;39398;48.382;9.802;2022-10-12T00:42:33;94468.25;;;11.74;100.00
53522;BME280;39398;48.382;9.802;2022-10-12T00:43:36;94464.72;;;11.81;100.00
53522;BME280;39398;48.382;9.802;2022-10-12T00:44:41;94471.63;;;11.82;100.00
53522;BME280;39398;48.382;9.802;2022-10-12T00:45:42;94470.31;;;12.08;100.00
53522;BME280;39398;48.382;9.802;2022-10-12T00:46:45;94464.47;;;12.13;100.00
53522;BME280;39398;48.382;9.802;2022-10-12T00:47:49;94464.63;;;12.26;100.00
53522;BME280;39398;48.382;9.802;2022-10-12T00:48:55;94459.56;;;12.31;100.00
53522;BME280;39398;48.382;9.802;2022-10-12T00:50:03;94463.03;;;12.10;100.00
53522;BME280;39398;48.382;9.802;2022-10-12T00:51:05;94454.84;;;12.26;100.00
53522;BME280;39398;48.382;9.802;2022-10-12T00:52:10;94463.63;;;12.12;100.00
53522;BME280;39398;48.382;9.802;2022-10-12T00:53:15;94463.34;;;12.00;100.00
53522;BME280;39398;48.382;9.802;2022-10-12T00:54:21;94458.09;;;12.07;100.00
53522;BME280;39398;48.382;9.802;2022-10-12T00:55:25;94461.22;;;11.96;100.00
53522;BME280;39398;48.382;9.802;2022-10-12T00:56:31;94464.63;;;12.26;100.00
53522;BME280;39398;48.382;9.802;2022-10-12T00:57:33;94455.84;;;12.25;100.00
53522;BME280;39398;48.382;9.802;2022-10-12T00:58:36;94454.09;;;12.54;100.00
53522;BME280;39398;48.382;9.802;2022-10-12T00:59:42;94454.16;;;12.61;100.00
53522;BME280;39398;48.382;9.802;2022-10-12T01:00:45;94449.75;;;12.74;98.85
53522;BME280;39398;48.382;9.802;2022-10-12T01:01:46;94457.19;;;12.86;98.10
53522;BME280;39398;48.382;9.802;2022-10-12T01:02:50;94455.84;;;12.96;97.39
53522;BME280;39398;48.382;9.802;2022-10-12T01:03:53;94455.41;;;12.93;97.01
53522;BME280;39398;48.382;9.802;2022-10-12T01:04:55;94455.25;;;12.73;96.88
53522;BME280;39398;48.382;9.802;2022-10-12T01:05:58;94456.75;;;12.54;97.88
53522;BME280;39398;48.382;9.802;2022-10-12T01:07:00;94451.44;;;12.54;98.91
53522;BME280;39398;48.382;9.802;2022-10-12T01:08:06;94451.50;;;12.39;99.05
53522;BME280;39398;48.382;9.802;2022-10-12T01:09:08;94458.88;;;12.22;99.85
53522;BME280;39398;48.382;9.802;2022-10-12T01:10:10;94459.88;;;12.00;100.00
53522;BME280;39398;48.382;9.802;2022-10-12T01:11:12;94458.09;;;12.07;100.00
53522;BME280;39398;48.382;9.802;2022-10-12T01:12:14;94462.03;;;11.96;100.00
53522;BME280;39398;48.382;9.802;2022-10-12T01:13:16;94464.31;;;11.99;100.00
53522;BME280;39398;48.382;9.802;2022-10-12T01:14:18;94461.50;;;12.01;100.00
53522;BME280;39398;48.382;9.802;2022-10-12T01:15:21;94467.97;;;11.98;100.00
53522;BME280;39398;48.382;9.802;2022-10-12T01:16:28;94471.19;;;11.94;100.00
53522;BME280;39398;48.382;9.802;2022-10-12T01:17:40;94469.09;;;11.89;100.00
53522;BME280;39398;48.382;9.802;2022-10-12T01:18:48;94467.97;;;11.83;100.00
53522;BME280;39398;48.382;9.802;2022-10-12T01:20:14;94467.72;;;11.78;100.00
53522;BME280;39398;48.382;9.802;2022-10-12T01:21:25;94473.19;;;11.77;100.00
53522;BME280;39398;48.382;9.802;2022-10-12T01:22:29;94469.38;;;11.64;100.00
53522;BME280;39398;48.382;9.802;2022-10-12T01:24:04;94472.28;;;11.70;100.00
53522;BME280;39398;48.382;9.802;2022-10-12T01:25:17;94470.66;;;11.69;100.00
53522;BME280;39398;48.382;9.802;2022-10-12T01:26:51;94470.22;;;11.65;100.00
53522;BME280;39398;48.382;9.802;2022-10-12T01:28:02;94472.50;;;11.68;100.00
53522;BME280;39398;48.382;9.802;2022-10-12T01:29:19;94470.91;;;11.74;100.00
53522;BME280;39398;48.382;9.802;2022-10-12T01:30:29;94465.53;;;11.67;100.00
53522;BME280;39398;48.382;9.802;2022-10-12T01:31:35;94472.19;;;11.78;100.00
53522;BME280;39398;48.382;9.802;2022-10-12T01:33:04;94462.59;;;11.77;100.00
53522;BME280;39398;48.382;9.802;2022-10-12T01:34:14;94475.28;;;11.81;100.00
53522;BME280;39398;48.382;9.802;2022-10-12T01:35:22;94464.25;;;11.78;100.00
53522;BME280;39398;48.382;9.802;2022-10-12T01:36:31;94468.81;;;11.84;100.00
53522;BME280;39398;48.382;9.802;2022-10-12T01:37:42;94457.47;;;12.05;100.00
53522;BME280;39398;48.382;9.802;2022-10-12T01:38:49;94459.50;;;12.03;100.00
53522;BME280;39398;48.382;9.802;2022-10-12T01:39:55;94456.66;;;12.04;100.00
53522;BME280;39398;48.382;9.802;2022-10-12T01:41:02;94456.66;;;12.04;100.00
53522;BME280;39398;48.382;9.802;2022-10-12T01:42:08;94449.56;;;12.26;100.00
53522;BME280;39398;48.382;9.802;2022-10-12T01:43:11;94445.63;;;12.44;100.00
53522;BME280;39398;48.382;9.802;2022-10-12T01:44:19;94446.91;;;12.48;100.00
53522;BME280;39398;48.382;9.802;2022-10-12T01:45:20;94442.19;;;12.71;100.00
53522;BME280;39398;48.382;9.802;2022-10-12T01:46:39;94449.50;;;12.69;99.10
53522;BME280;39398;48.382;9.802;2022-10-12T01:47:44;94447.94;;;12.75;98.36
53522;BME280;39398;48.382;9.802;2022-10-12T01:48:49;94448.59;;;12.55;98.60
53522;BME280;39398;48.382;9.802;2022-10-12T01:49:51;94448.19;;;12.80;97.83
53522;BME280;39398;48.382;9.802;2022-10-12T01:50:55;94438.84;;;12.84;97.13
53522;BME280;39398;48.382;9.802;2022-10-12T01:52:13;94445.53;;;12.80;97.04
53522;BME280;39398;48.382;9.802;2022-10-12T01:53:26;94445.63;;;12.93;96.83
53522;BME280;39398;48.382;9.802;2022-10-12T01:54:36;94439.69;;;12.91;96.35
53522;BME280;39398;48.382;9.802;2022-10-12T01:55:45;94448.47;;;12.42;97.98
53522;BME280;39398;48.382;9.802;2022-10-12T01:56:54;94450.16;;;12.71;97.29
53522;BME280;39398;48.382;9.802;2022-10-12T01:58:10;94441.28;;;12.86;96.71
53522;BME280;39398;48.382;9.802;2022-10-12T01:59:19;94442.97;;;12.93;95.97
53522;BME280;39398;48.382;9.802;2022-10-12T02:00:25;94447.09;;;12.96;95.80
53522;BME280;39398;48.382;9.802;2022-10-12T02:01:31;94443.53;;;12.89;95.64
53522;BME280;39398;48.382;9.802;2022-10-12T02:02:46;94453.03;;;13.04;95.31
53522;BME280;39398;48.382;9.802;2022-10-12T02:03:54;94446.97;;;12.83;96.29
53522;BME280;39398;48.382;9.802;2022-10-12T02:05:03;94449.09;;;12.94;95.64
53522;BME280;39398;48.382;9.802;2022-10-12T02:06:11;94447.38;;;12.79;96.21
53522;BME280;39398;48.382;9.802;2022-10-12T02:07:20;94447.56;;;12.56;97.03
53522;BME280;39398;48.382;9.802;2022-10-12T02:08:24;94450.28;;;12.63;97.55
53522;BME280;39398;48.382;9.802;2022-10-12T02:09:28;94454.44;;;12.72;97.35
53522;BME280;39398;48.382;9.802;2022-10-12T02:10:35;94444.81;;;12.65;97.20
53522;BME280;39398;48.382;9.802;2022-10-12T02:11:39;94446.66;;;12.92;96.28
53522;BME280;39398;48.382;9.802;2022-10-12T02:12:44;94445.59;;;12.87;96.23
53522;BME280;39398;48.382;9.802;2022-10-12T02:13:51;94441.75;;;12.89;96.09
53522;BME280;39398;48.382;9.802;2022-10-12T02:14:59;94448.50;;;12.98;96.23
53522;BME280;39398;48.382;9.802;2022-10-12T02:16:04;94436.28;;;12.97;95.67
53522;BME280;39398;48.382;9.802;2022-10-12T02:17:10;94442.22;;;12.99;95.18
53522;BME280;39398;48.382;9.802;2022-10-12T02:18:16;94445.00;;;12.91;95.53
53522;BME280;39398;48.382;9.802;2022-10-12T02:19:21;94440.84;;;13.10;94.94
53522;BME280;39398;48.382;9.802;2022-10-12T02:20:26;94436.44;;;12.89;95.43
53522;BME280;39398;48.382;9.802;2022-10-12T02:21:30;94431.56;;;12.93;95.49
53522;BME280;39398;48.382;9.802;2022-10-12T02:22:33;94433.16;;;12.87;95.84
53522;BME280;39398;48.382;9.802;2022-10-12T02:23:37;94440.75;;;12.97;95.32
53522;BME280;39398;48.382;9.802;2022-10-12T02:24:41;94436.28;;;12.97;94.90
53522;BME280;39398;48.382;9.802;2022-10-12T02:25:44;94433.41;;;12.92;95.08
53522;BME280;39398;48.382;9.802;2022-10-12T02:26:47;94429.44;;;12.82;94.92
53522;BME280;39398;48.382;9.802;2022-10-12T02:27:54;94436.53;;;12.74;96.42
53522;BME280;39398;48.382;9.802;2022-10-12T02:28:57;94431.28;;;12.81;95.63
53522;BME280;39398;48.382;9.802;2022-10-12T02:30:01;94437.97;;;12.77;96.14
53522;BME280;39398;48.382;9.802;2022-10-12T02:31:08;94436.44;;;12.40;97.31
53522;BME280;39398;48.382;9.802;2022-10-12T02:32:16;94430.25;;;12.82;96.45
53522;BME280;39398;48.382;9.802;2022-10-12T02:33:24;94433.47;;;12.28;97.68
53522;BME280;39398;48.382;9.802;2022-10-12T02:34:29;94431.41;;;12.45;98.06
53522;BME280;39398;48.382;9.802;2022-10-12T02:35:37;94430.75;;;12.64;97.27
53522;BME280;39398;48.382;9.802;2022-10-12T02:36:45;94429.72;;;12.65;97.88
53522;BME280;39398;48.382;9.802;2022-10-12T02:37:50;94421.97;;;12.92;96.58
53522;BME280;39398;48.382;9.802;2022-10-12T02:38:58;94431.28;;;12.60;97.80
53522;BME280;39398;48.382;9.802;2022-10-12T02:40:06;94431.72;;;12.63;97.29
53522;BME280;39398;48.382;9.802;2022-10-12T02:41:13;94430.16;;;12.69;96.76
53522;BME280;39398;48.382;9.802;2022-10-12T02:42:19;94427.28;;;12.64;97.34
53522;BME280;39398;48.382;9.802;2022-10-12T02:43:25;94428.50;;;12.40;97.63
53522;BME280;39398;48.382;9.802;2022-10-12T02:44:30;94426.06;;;12.66;97.59
53522;BME280;39398;48.382;9.802;2022-10-12T02:45:33;94426.47;;;12.70;96.90
53522;BME280;39398;48.382;9.802;2022-10-12T02:46:36;94422.59;;;12.66;96.91
53522;BME280;39398;48.382;9.802;2022-10-12T02:47:40;94426.47;;;12.70;97.19
53522;BME280;39398;48.382;9.802;2022-10-12T02:48:45;94424.91;;;13.03;95.80
53522;BME280;39398;48.382;9.802;2022-10-12T02:49:49;94415.97;;;12.76;96.46
53522;BME280;39398;48.382;9.802;2022-10-12T02:50:55;94420.69;;;12.81;95.59
53522;BME280;39398;48.382;9.802;2022-10-12T02:51:57;94420.84;;;12.51;96.90
53522;BME280;39398;48.382;9.802;2022-10-12T02:53:00;94416.56;;;12.78;96.83
53522;BME280;39398;48.382;9.802;2022-10-12T02:54:02;94425.06;;;12.67;96.97
53522;BME280;39398;48.382;9.802;2022-10-12T02:55:04;94419.19;;;12.72;96.75
53522;BME280;39398;48.382;9.802;2022-10-12T02:56:10;94415.28;;;12.68;97.09
53522;BME280;39398;48.382;9.802;2022-10-12T02:57:11;94421.78;;;12.65;97.32
53522;BME280;39398;48.382;9.802;2022-10-12T02:58:13;94417.00;;;12.54;97.50
53522;BME280;39398;48.382;9.802;2022-10-12T02:59:16;94415.88;;;12.70;96.86
53522;BME280;39398;48.382;9.802;2022-10-12T03:00:18;94419.72;;;12.61;97.38
53522;BME280;39398;48.382;9.802;2022-10-12T03:01:20;94422.53;;;12.59;97.51
53522;BME280;39398;48.382;9.802;2022-10-12T03:02:21;94414.28;;;12.47;97.93
53522;BME280;39398;48.382;9.802;2022-10-12T03:03:23;94422.53;;;12.59;97.33
53522;BME280;39398;48.382;9.802;2022-10-12T03:04:26;94415.72;;;12.50;97.90
53522;BME280;39398;48.382;9.802;2022-10-12T03:05:27;94421.81;;;12.72;96.71
53522;BME280;39398;48.382;9.802;2022-10-12T03:06:29;94417.16;;;12.74;96.25
53522;BME280;39398;48.382;9.802;2022-10-12T03:07:30;94422.06;;;12.49;97.60
53522;BME280;39398;48.382;9.802;2022-10-12T03:08:32;94421.47;;;12.53;97.79
53522;BME280;39398;48.382;9.802;2022-10-12T03:09:33;94417.63;;;12.34;97.80
53522;BME280;39398;48.382;9.802;2022-10-12T03:10:35;94423.38;;;12.17;99.51
53522;BME280;39398;48.382;9.802;2022-10-12T03:11:36;94425.56;;;12.34;99.54
53522;BME280;39398;48.382;9.802;2022-10-12T03:12:37;94421.50;;;12.60;98.23
53522;BME280;39398;48.382;9.802;2022-10-12T03:13:39;94421.59;;;12.67;96.96
53522;BME280;39398;48.382;9.802;2022-10-12T03:14:40;94428.97;;;12.50;98.13
53522;BME280;39398;48.382;9.802;2022-10-12T03:15:42;94420.97;;;12.65;97.08
53522;BME280;39398;48.382;9.802;2022-10-12T03:16:43;94426.88;;;12.95;95.88
53522;BME280;39398;48.382;9.802;2022-10-12T03:17:45;94421.25;;;13.11;94.50
53522;BME280;39398;48.382;9.802;2022-10-12T03:18:46;94419.72;;;13.23;93.42
53522;BME280;39398;48.382;9.802;2022-10-12T03:19:49;94420.72;;;13.22;93.05
53522;BME280;39398;48.382;9.802;2022-10-12T03:20:51;94418.91;;;13.23;92.88
53522;BME280;39398;48.382;9.802;2022-10-12T03:21:52;94422.06;;;13.05;93.10
53522;BME280;39398;48.382;9.802;2022-10-12T03:22:53;94419.84;;;13.09;93.73
53522;BME280;39398;48.382;9.802;2022-10-12T03:23:55;94415.03;;;12.91;94.06
53522;BME280;39398;48.382;9.802;2022-10-12T03:24:56;94420.03;;;12.79;94.17
53522;BME280;39398;48.382;9.802;2022-10-12T03:25:58;94417.84;;;13.17;93.71
53522;BME280;39398;48.382;9.802;2022-10-12T03:26:59;94420.06;;;13.14;93.40
53522;BME280;39398;48.382;9.802;2022-10-12T03:28:01;94416.88;;;12.90;93.93
53522;BME280;39398;48.382;9.802;2022-10-12T03:29:02;94418.63;;;12.76;94.85
53522;BME280;39398;48.382;9.802;2022-10-12T03:30:05;94423.75;;;12.85;94.62
53522;BME280;39398;48.382;9.802;2022-10-12T03:31:06;94423.31;;;13.09;93.67
53522;BME280;39398;48.382;9.802;2022-10-12T03:32:08;94418.19;;;13.08;92.94
53522;BME280;39398;48.382;9.802;2022-10-12T03:33:09;94415.28;;;12.96;93.08
53522;BME280;39398;48.382;9.802;2022-10-12T03:34:11;94419.50;;;12.90;93.78
53522;BME280;39398;48.382;9.802;2022-10-12T03:35:13;94417.28;;;12.94;94.01
53522;BME280;39398;48.382;9.802;2022-10-12T03:36:15;94415.31;;;13.02;93.42
53522;BME280;39398;48.382;9.802;2022-10-12T03:37:16;94418.88;;;12.88;93.54
53522;BME280;39398;48.382;9.802;2022-10-12T03:38:18;94414.59;;;12.87;93.29
53522;BME280;39398;48.382;9.802;2022-10-12T03:39:20;94420.47;;;12.83;93.95
53522;BME280;39398;48.382;9.802;2022-10-12T03:40:21;94417.72;;;12.69;94.08
53522;BME280;39398;48.382;9.802;2022-10-12T03:41:23;94418.34;;;12.43;94.90
53522;BME280;39398;48.382;9.802;2022-10-12T03:42:24;94417.31;;;12.44;95.26
53522;BME280;39398;48.382;9.802;2022-10-12T03:43:26;94418.53;;;12.70;94.33
53522;BME280;39398;48.382;9.802;2022-10-12T03:44:27;94418.31;;;12.93;93.91
53522;BME280;39398;48.382;9.802;2022-10-12T03:45:29;94419.69;;;13.17;92.55
53522;BME280;39398;48.382;9.802;2022-10-12T03:46:30;94415.78;;;13.13;92.50
53522;BME280;39398;48.382;9.802;2022-10-12T03:47:32;94423.03;;;13.25;91.83
53522;BME280;39398;48.382;9.802;2022-10-12T03:48:33;94417.06;;;13.23;91.61
53522;BME280;39398;48.382;9.802;2022-10-12T03:49:35;94422.22;;;13.25;91.20
53522;BME280;39398;48.382;9.802;2022-10-12T03:50:37;94417.66;;;13.19;91.73
53522;BME280;39398;48.382;9.802;2022-10-12T03:51:39;94423.66;;;13.28;91.19
53522;BME280;39398;48.382;9.802;2022-10-12T03:52:40;94417.41;;;13.14;91.22
53522;BME280;39398;48.382;9.802;2022-10-12T03:53:42;94424.06;;;13.24;91.20
53522;BME280;39398;48.382;9.802;2022-10-12T03:54:46;94427.16;;;13.35;91.00
53522;BME280;39398;48.382;9.802;2022-10-12T03:55:47;94421.69;;;13.43;90.49
53522;BME280;39398;48.382;9.802;2022-10-12T03:56:49;94422.13;;;13.46;89.99
53522;BME280;39398;48.382;9.802;2022-10-12T03:57:50;94420.31;;;13.54;89.69
53522;BME280;39398;48.382;9.802;2022-10-12T03:58:52;94420.69;;;13.44;90.33
53522;BME280;39398;48.382;9.802;2022-10-12T03:59:53;94422.19;;;13.60;89.65
53522;BME280;39398;48.382;9.802;2022-10-12T04:00:55;94421.38;;;13.59;89.62
53522;BME280;39398;48.382;9.802;2022-10-12T04:01:56;94423.44;;;13.70;89.23
53522;BME280;39398;48.382;9.802;2022-10-12T04:02:57;94426.72;;;13.72;88.71
53522;BME280;39398;48.382;9.802;2022-10-12T04:03:59;94424.66;;;13.68;88.88
53522;BME280;39398;48.382;9.802;2022-10-12T04:05:01;94427.31;;;13.68;88.77
53522;BME280;39398;48.382;9.802;2022-10-12T04:06:04;94424.66;;;13.26;89.01
53522;BME280;39398;48.382;9.802;2022-10-12T04:07:06;94421.88;;;13.41;88.59
53522;BME280;39398;48.382;9.802;2022-10-12T04:08:07;94422.22;;;13.25;89.44
53522;BME280;39398;48.382;9.802;2022-10-12T04:09:09;94422.53;;;13.43;88.93
53522;BME280;39398;48.382;9.802;2022-10-12T04:10:10;94425.00;;;13.52;88.90
53522;BME280;39398;48.382;9.802;2022-10-12T04:11:12;94431.41;;;13.29;89.19
53522;BME280;39398;48.382;9.802;2022-10-12T04:12:13;94431.69;;;13.41;89.46
53522;BME280;39398;48.382;9.802;2022-10-12T04:13:15;94431.53;;;13.56;88.97
53522;BME280;39398;48.382;9.802;2022-10-12T04:14:16;94430.28;;;13.52;88.97
53522;BME280;39398;48.382;9.802;2022-10-12T04:15:18;94428.91;;;13.62;88.72
53522;BME280;39398;48.382;9.802;2022-10-12T04:16:19;94428.84;;;13.49;88.66
53522;BME280;39398;48.382;9.802;2022-10-12T04:17:21;94432.53;;;13.48;89.13
53522;BME280;39398;48.382;9.802;2022-10-12T04:18:23;94431.75;;;13.54;89.12
53522;BME280;39398;48.382;9.802;2022-10-12T04:19:24;94423.31;;;13.37;89.41
53522;BME280;39398;48.382;9.802;2022-10-12T04:20:25;94431.13;;;13.24;90.17
53522;BME280;39398;48.382;9.802;2022-10-12T04:21:30;94440.25;;;13.43;89.25
53522;BME280;39398;48.382;9.802;2022-10-12T04:22:32;94432.28;;;13.08;90.79
53522;BME280;39398;48.382;9.802;2022-10-12T04:23:33;94435.19;;;13.20;91.06
53522;BME280;39398;48.382;9.802;2022-10-12T04:24:35;94431.94;;;13.18;91.14
53522;BME280;39398;48.382;9.802;2022-10-12T04:25:36;94430.53;;;13.22;91.32
53522;BME280;39398;48.382;9.802;2022-10-12T04:26:38;94439.66;;;13.13;91.97
53522;BME280;39398;48.382;9.802;2022-10-12T04:27:39;94435.63;;;13.23;91.38
53522;BME280;39398;48.382;9.802;2022-10-12T04:28:41;94430.38;;;13.30;91.04
53522;BME280;39398;48.382;9.802;2022-10-12T04:29:43;94434.09;;;13.36;90.80
53522;BME280;39398;48.382;9.802;2022-10-12T04:30:45;94440.44;;;13.41;90.37
53522;BME280;39398;48.382;9.802;2022-10-12T04:31:46;94437.84;;;13.20;91.01
53522;BME280;39398;48.382;9.802;2022-10-12T04:32:47;94438.94;;;13.25;91.28
53522;BME280;39398;48.382;9.802;2022-10-12T04:33:51;94434.06;;;13.29;90.54
53522;BME280;39398;48.382;9.802;2022-10-12T04:34:53;94438.63;;;13.42;90.49
53522;BME280;39398;48.382;9.802;2022-10-12T04:35:54;94435.56;;;13.45;90.01
53522;BME280;39398;48.382;9.802;2022-10-12T04:36:57;94442.28;;;13.13;90.90
53522;BME280;39398;48.382;9.802;2022-10-12T04:37:59;94444.66;;;13.29;90.88
53522;BME280;39398;48.382;9.802;2022-10-12T04:39:00;94445.53;;;13.43;90.35
53522;BME280;39398;48.382;9.802;2022-10-12T04:40:02;94442.31;;;13.47;89.85
53522;BME280;39398;48.382;9.802;2022-10-12T04:41:04;94439.06;;;13.52;89.39
53522;BME280;39398;48.382;9.802;2022-10-12T04:42:06;94443.78;;;13.50;89.45
53522;BME280;39398;48.382;9.802;2022-10-12T04:43:07;94438.28;;;13.23;90.04
53522;BME280;39398;48.382;9.802;2022-10-12T04:44:09;94435.19;;;13.20;90.15
53522;BME280;39398;48.382;9.802;2022-10-12T04:45:10;94440.19;;;13.30;89.71
53522;BME280;39398;48.382;9.802;2022-10-12T04:46:12;94442.16;;;13.21;90.53
53522;BME280;39398;48.382;9.802;2022-10-12T04:47:13;94433.06;;;13.02;90.94
53522;BME280;39398;48.382;9.802;2022-10-12T04:48:15;94437.84;;;12.92;91.04
53522;BME280;39398;48.382;9.802;2022-10-12T04:49:16;94433.06;;;13.02;91.05
53522;BME280;39398;48.382;9.802;2022-10-12T04:50:18;94438.16;;;13.03;91.01
53522;BME280;39398;48.382;9.802;2022-10-12T04:51:19;94440.28;;;12.87;91.77
53522;BME280;39398;48.382;9.802;2022-10-12T04:52:22;94442.97;;;12.93;91.35
53522;BME280;39398;48.382;9.802;2022-10-12T04:53:23;94440.47;;;13.13;90.94
53522;BME280;39398;48.382;9.802;2022-10-12T04:54:25;94441.09;;;13.15;90.84
53522;BME280;39398;48.382;9.802;2022-10-12T04:55:26;94439.47;;;12.86;91.10
53522;BME280;39398;48.382;9.802;2022-10-12T04:56:28;94442.34;;;13.19;90.84
53522;BME280;39398;48.382;9.802;2022-10-12T04:57:29;94442.72;;;13.16;90.37
53522;BME280;39398;48.382;9.802;2022-10-12T04:58:31;94441.78;;;12.96;90.58
53522;BME280;39398;48.382;9.802;2022-10-12T04:59:33;94435.06;;;13.00;90.88
53522;BME280;39398;48.382;9.802;2022-10-12T05:00:34;94443.59;;;12.95;91.09
53522;BME280;39398;48.382;9.802;2022-10-12T05:01:36;94440.66;;;13.12;90.93
53522;BME280;39398;48.382;9.802;2022-10-12T05:02:37;94445.09;;;13.33;89.87
53522;BME280;39398;48.382;9.802;2022-10-12T05:03:39;94440.38;;;13.28;89.29
53522;BME280;39398;48.382;9.802;2022-10-12T05:04:42;94437.09;;;13.26;89.47
53522;BME280;39398;48.382;9.802;2022-10-12T05:05:44;94444.34;;;13.45;89.12
53522;BME280;39398;48.382;9.802;2022-10-12T05:06:45;94437.28;;;13.59;88.59
53522;BME280;39398;48.382;9.802;2022-10-12T05:07:48;94438.91;;;13.60;88.18
53522;BME280;39398;48.382;9.802;2022-10-12T05:08:50;94438.25;;;13.52;88.38
53522;BME280;39398;48.382;9.802;2022-10-12T05:09:51;94444.56;;;13.44;88.78
53522;BME280;39398;48.382;9.802;2022-10-12T05:10:52;94440.03;;;13.38;88.92
53522;BME280;39398;48.382;9.802;2022-10-12T05:11:54;94437.69;;;13.56;88.39
53522;BME280;39398;48.382;9.802;2022-10-12T05:12:56;94439.25;;;13.44;88.44
53522;BME280;39398;48.382;9.802;2022-10-12T05:13:57;94446.25;;;13.58;88.06
53522;BME280;39398;48.382;9.802;2022-10-12T05:14:59;94442.28;;;13.41;88.79
53522;BME280;39398;48.382;9.802;2022-10-12T05:16:00;94442.22;;;13.28;88.79
53522;BME280;39398;48.382;9.802;2022-10-12T05:17:02;94435.56;;;13.45;88.88
53522;BME280;39398;48.382;9.802;2022-10-12T05:18:03;94442.94;;;13.49;88.93
53522;BME280;39398;48.382;9.802;2022-10-12T05:19:05;94446.25;;;13.58;87.96
53522;BME280;39398;48.382;9.802;2022-10-12T05:20:08;94444.22;;;13.60;87.76
53522;BME280;39398;48.382;9.802;2022-10-12T05:21:10;94436.66;;;13.57;87.67
53522;BME280;39398;48.382;9.802;2022-10-12T05:22:11;94441.50;;;13.47;88.03
53522;BME280;39398;48.382;9.802;2022-10-12T05:23:14;94450.28;;;13.47;88.40
53522;BME280;39398;48.382;9.802;2022-10-12T05:24:15;94449.22;;;13.14;89.41
53522;BME280;39398;48.382;9.802;2022-10-12T05:25:17;94445.84;;;12.98;90.23
53522;BME280;39398;48.382;9.802;2022-10-12T05:26:19;94450.63;;;13.38;90.00
53522;BME280;39398;48.382;9.802;2022-10-12T05:27:20;94444.00;;;12.92;91.00
53522;BME280;39398;48.382;9.802;2022-10-12T05:28:22;94443.16;;;12.92;91.96
53522;BME280;39398;48.382;9.802;2022-10-12T05:29:23;94451.66;;;13.09;91.29
53522;BME280;39398;48.382;9.802;2022-10-12T05:30:25;94447.13;;;13.02;91.20
53522;BME280;39398;48.382;9.802;2022-10-12T05:31:27;94447.84;;;12.90;91.29
53522;BME280;39398;48.382;9.802;2022-10-12T05:32:28;94451.66;;;12.80;92.17
53522;BME280;39398;48.382;9.802;2022-10-12T05:33:29;94452.56;;;12.94;92.12
53522;BME280;39398;48.382;9.802;2022-10-12T05:34:31;94449.09;;;12.94;91.48
53522;BME280;39398;48.382;9.802;2022-10-12T05:35:33;94446.66;;;12.92;91.24